sensor_id;sensor_type;location;lat;lon;timestamp;P1;durP1;ratioP1;P2;durP2;ratioP2
27722;SDS011;15123;-37.794;175.246;2023-06-26T00:00:17;8.68;;;2.30;;
27722;SDS011;15123;-37.794;175.246;2023-06-26T00:03:41;8.90;;;2.22;;
27722;SDS011;15123;-37.794;175.246;2023-06-26T00:07:07;10.63;;;2.65;;
27722;SDS011;15123;-37.794;175.246;2023-06-26T00:10:31;7.60;;;2.13;;
27722;SDS011;15123;-37.794;175.246;2023-06-26T00:13:55;10.00;;;2.33;;
27722;SDS011;15123;-37.794;175.246;2023-06-26T00:17:18;11.55;;;2.20;;
27722;SDS011;15123;-37.794;175.246;2023-06-26T00:20:42;10.85;;;2.78;;
27722;SDS011;15123;-37.794;175.246;2023-06-26T00:24:05;9.60;;;2.75;;
27722;SDS011;15123;-37.794;175.246;2023-06-26T00:27:28;7.72;;;2.47;;
27722;SDS011;15123;-37.794;175.246;2023-06-26T00:30:52;8.82;;;2.17;;
27722;SDS011;15123;-37.794;175.246;2023-06-26T00:34:16;8.35;;;2.50;;
27722;SDS011;15123;-37.794;175.246;2023-06-26T00:37:42;7.40;;;2.08;;
27722;SDS011;15123;-37.794;175.246;2023-06-26T00:41:05;8.38;;;2.40;;
27722;SDS011;15123;-37.794;175.246;2023-06-26T00:44:29;9.57;;;2.05;;
27722;SDS011;15123;-37.794;175.246;2023-06-26T00:47:52;6.63;;;2.00;;
27722;SDS011;15123;-37.794;175.246;2023-06-26T00:51:16;9.23;;;1.95;;
27722;SDS011;15123;-37.794;175.246;2023-06-26T00:54:39;8.10;;;2.33;;
27722;SDS011;15123;-37.794;175.246;2023-06-26T00:58:02;7.05;;;2.00;;
27722;SDS011;15123;-37.794;175.246;2023-06-26T01:01:26;8.00;;;2.10;;
27722;SDS011;15123;-37.794;175.246;2023-06-26T01:04:51;8.13;;;2.15;;
27722;SDS011;15123;-37.794;175.246;2023-06-26T01:08:18;7.68;;;2.10;;
27722;SDS011;15123;-37.794;175.246;2023-06-26T01:11:42;6.18;;;1.30;;
27722;SDS011;15123;-37.794;175.246;2023-06-26T01:15:07;6.90;;;1.70;;
27722;SDS011;15123;-37.794;175.246;2023-06-26T01:18:32;9.93;;;1.90;;
27722;SDS011;15123;-37.794;175.246;2023-06-26T01:22:02;7.13;;;2.03;;
27722;SDS011;15123;-37.794;175.246;2023-06-26T01:29:26;6.35;;;1.20;;
27722;SDS011;15123;-37.794;175.246;2023-06-26T01:32:54;6.25;;;1.02;;
27722;SDS011;15123;-37.794;175.246;2023-06-26T01:36:19;7.10;;;1.40;;
27722;SDS011;15123;-37.794;175.246;2023-06-26T01:39:42;6.72;;;1.10;;
27722;SDS011;15123;-37.794;175.246;2023-06-26T01:43:06;8.10;;;1.50;;
27722;SDS011;15123;-37.794;175.246;2023-06-26T01:50:25;4.53;;;0.90;;
27722;SDS011;15123;-37.794;175.246;2023-06-26T01:53:53;5.15;;;1.00;;
27722;SDS011;15123;-37.794;175.246;2023-06-26T01:57:18;6.13;;;0.90;;
27722;SDS011;15123;-37.794;175.246;2023-06-26T02:00:45;5.55;;;1.10;;
27722;SDS011;15123;-37.794;175.246;2023-06-26T02:04:10;4.82;;;0.80;;
27722;SDS011;15123;-37.794;175.246;2023-06-26T02:07:33;7.00;;;1.25;;
27722;SDS011;15123;-37.794;175.246;2023-06-26T02:10:57;7.50;;;1.67;;
27722;SDS011;15123;-37.794;175.246;2023-06-26T02:14:20;5.25;;;0.90;;
27722;SDS011;15123;-37.794;175.246;2023-06-26T02:17:43;8.45;;;1.30;;
27722;SDS011;15123;-37.794;175.246;2023-06-26T02:21:07;6.80;;;1.17;;
27722;SDS011;15123;-37.794;175.246;2023-06-26T02:24:32;6.38;;;1.33;;
27722;SDS011;15123;-37.794;175.246;2023-06-26T02:27:56;5.47;;;0.77;;
27722;SDS011;15123;-37.794;175.246;2023-06-26T02:31:19;4.82;;;1.00;;
27722;SDS011;15123;-37.794;175.246;2023-06-26T02:34:43;6.18;;;0.93;;
27722;SDS011;15123;-37.794;175.246;2023-06-26T02:38:14;3.70;;;0.80;;
27722;SDS011;15123;-37.794;175.246;2023-06-26T02:41:37;6.47;;;0.98;;
27722;SDS011;15123;-37.794;175.246;2023-06-26T02:45:01;4.85;;;1.10;;
27722;SDS011;15123;-37.794;175.246;2023-06-26T02:48:25;7.30;;;1.50;;
27722;SDS011;15123;-37.794;175.246;2023-06-26T02:51:49;6.90;;;1.27;;
27722;SDS011;15123;-37.794;175.246;2023-06-26T02:55:13;7.15;;;1.13;;
27722;SDS011;15123;-37.794;175.246;2023-06-26T02:58:36;5.80;;;1.00;;
27722;SDS011;15123;-37.794;175.246;2023-06-26T03:02:01;7.10;;;0.90;;
27722;SDS011;15123;-37.794;175.246;2023-06-26T03:05:26;4.88;;;0.77;;
27722;SDS011;15123;-37.794;175.246;2023-06-26T03:08:50;6.25;;;0.90;;
27722;SDS011;15123;-37.794;175.246;2023-06-26T03:12:15;6.75;;;1.30;;
27722;SDS011;15123;-37.794;175.246;2023-06-26T03:15:40;5.60;;;1.02;;
27722;SDS011;15123;-37.794;175.246;2023-06-26T03:19:05;7.78;;;1.02;;
27722;SDS011;15123;-37.794;175.246;2023-06-26T03:22:46;6.90;;;0.93;;
27722;SDS011;15123;-37.794;175.246;2023-06-26T03:26:10;5.10;;;0.82;;
27722;SDS011;15123;-37.794;175.246;2023-06-26T03:29:34;5.20;;;0.80;;
27722;SDS011;15123;-37.794;175.246;2023-06-26T03:33:00;7.60;;;1.08;;
27722;SDS011;15123;-37.794;175.246;2023-06-26T03:36:25;7.78;;;1.33;;
27722;SDS011;15123;-37.794;175.246;2023-06-26T03:39:49;5.93;;;1.00;;
27722;SDS011;15123;-37.794;175.246;2023-06-26T03:43:13;6.90;;;1.02;;
27722;SDS011;15123;-37.794;175.246;2023-06-26T03:46:49;6.60;;;1.00;;
27722;SDS011;15123;-37.794;175.246;2023-06-26T03:50:12;6.15;;;1.00;;
27722;SDS011;15123;-37.794;175.246;2023-06-26T03:53:37;7.70;;;1.80;;
27722;SDS011;15123;-37.794;175.246;2023-06-26T03:57:00;6.60;;;1.55;;
27722;SDS011;15123;-37.794;175.246;2023-06-26T04:00:24;5.57;;;0.90;;
27722;SDS011;15123;-37.794;175.246;2023-06-26T04:03:47;6.90;;;0.90;;
27722;SDS011;15123;-37.794;175.246;2023-06-26T04:07:12;5.25;;;1.20;;
27722;SDS011;15123;-37.794;175.246;2023-06-26T04:10:38;5.68;;;1.00;;
27722;SDS011;15123;-37.794;175.246;2023-06-26T04:14:04;5.47;;;0.98;;
27722;SDS011;15123;-37.794;175.246;2023-06-26T04:17:27;7.30;;;1.20;;
27722;SDS011;15123;-37.794;175.246;2023-06-26T04:21:04;7.38;;;1.23;;
27722;SDS011;15123;-37.794;175.246;2023-06-26T04:24:34;16.88;;;6.88;;
27722;SDS011;15123;-37.794;175.246;2023-06-26T04:27:59;10.18;;;3.20;;
27722;SDS011;15123;-37.794;175.246;2023-06-26T04:31:23;15.15;;;7.18;;
27722;SDS011;15123;-37.794;175.246;2023-06-26T04:34:47;16.23;;;7.18;;
27722;SDS011;15123;-37.794;175.246;2023-06-26T04:38:12;28.42;;;14.70;;
27722;SDS011;15123;-37.794;175.246;2023-06-26T04:41:37;23.58;;;10.73;;
27722;SDS011;15123;-37.794;175.246;2023-06-26T04:45:01;14.00;;;4.65;;
27722;SDS011;15123;-37.794;175.246;2023-06-26T04:48:24;9.10;;;2.72;;
27722;SDS011;15123;-37.794;175.246;2023-06-26T04:51:48;9.15;;;2.10;;
27722;SDS011;15123;-37.794;175.246;2023-06-26T04:55:11;4.85;;;1.10;;
27722;SDS011;15123;-37.794;175.246;2023-06-26T04:58:36;4.28;;;1.00;;
27722;SDS011;15123;-37.794;175.246;2023-06-26T05:01:59;6.22;;;0.80;;
27722;SDS011;15123;-37.794;175.246;2023-06-26T05:05:24;6.35;;;1.20;;
27722;SDS011;15123;-37.794;175.246;2023-06-26T05:08:47;6.57;;;1.40;;
27722;SDS011;15123;-37.794;175.246;2023-06-26T05:12:11;13.85;;;3.55;;
27722;SDS011;15123;-37.794;175.246;2023-06-26T05:15:29;8.50;;;3.00;;
27722;SDS011;15123;-37.794;175.246;2023-06-26T05:18:46;6.47;;;1.58;;
27722;SDS011;15123;-37.794;175.246;2023-06-26T05:22:09;7.28;;;1.50;;
27722;SDS011;15123;-37.794;175.246;2023-06-26T05:25:34;6.68;;;2.20;;
27722;SDS011;15123;-37.794;175.246;2023-06-26T05:28:58;6.93;;;1.65;;
27722;SDS011;15123;-37.794;175.246;2023-06-26T05:32:21;6.40;;;1.75;;
27722;SDS011;15123;-37.794;175.246;2023-06-26T05:35:45;7.65;;;1.30;;
27722;SDS011;15123;-37.794;175.246;2023-06-26T05:39:17;3.92;;;1.00;;
27722;SDS011;15123;-37.794;175.246;2023-06-26T05:42:41;6.90;;;1.40;;
27722;SDS011;15123;-37.794;175.246;2023-06-26T05:46:05;5.07;;;2.00;;
27722;SDS011;15123;-37.794;175.246;2023-06-26T05:49:29;5.55;;;1.88;;
27722;SDS011;15123;-37.794;175.246;2023-06-26T05:52:52;6.93;;;2.10;;
27722;SDS011;15123;-37.794;175.246;2023-06-26T05:56:18;5.47;;;1.83;;
27722;SDS011;15123;-37.794;175.246;2023-06-26T05:59:41;5.53;;;2.13;;
27722;SDS011;15123;-37.794;175.246;2023-06-26T06:03:12;6.75;;;2.30;;
27722;SDS011;15123;-37.794;175.246;2023-06-26T06:06:35;7.95;;;3.85;;
27722;SDS011;15123;-37.794;175.246;2023-06-26T06:09:58;9.32;;;4.63;;
27722;SDS011;15123;-37.794;175.246;2023-06-26T06:13:22;7.95;;;3.83;;
27722;SDS011;15123;-37.794;175.246;2023-06-26T06:16:41;10.98;;;6.60;;
27722;SDS011;15123;-37.794;175.246;2023-06-26T06:19:58;11.07;;;6.25;;
27722;SDS011;15123;-37.794;175.246;2023-06-26T06:23:22;11.57;;;4.63;;
27722;SDS011;15123;-37.794;175.246;2023-06-26T06:26:45;11.10;;;5.03;;
27722;SDS011;15123;-37.794;175.246;2023-06-26T06:30:09;17.70;;;8.90;;
27722;SDS011;15123;-37.794;175.246;2023-06-26T06:33:52;19.38;;;12.18;;
27722;SDS011;15123;-37.794;175.246;2023-06-26T06:37:16;29.88;;;20.10;;
27722;SDS011;15123;-37.794;175.246;2023-06-26T06:40:40;19.63;;;12.90;;
27722;SDS011;15123;-37.794;175.246;2023-06-26T06:44:05;15.10;;;9.93;;
27722;SDS011;15123;-37.794;175.246;2023-06-26T06:47:29;14.48;;;10.00;;
27722;SDS011;15123;-37.794;175.246;2023-06-26T06:50:53;15.80;;;10.50;;
27722;SDS011;15123;-37.794;175.246;2023-06-26T06:54:17;13.52;;;8.18;;
27722;SDS011;15123;-37.794;175.246;2023-06-26T06:57:40;14.48;;;8.30;;
27722;SDS011;15123;-37.794;175.246;2023-06-26T07:01:03;14.15;;;8.68;;
27722;SDS011;15123;-37.794;175.246;2023-06-26T07:04:27;11.20;;;6.93;;
27722;SDS011;15123;-37.794;175.246;2023-06-26T07:07:51;11.35;;;6.75;;
27722;SDS011;15123;-37.794;175.246;2023-06-26T07:11:14;10.38;;;5.47;;
27722;SDS011;15123;-37.794;175.246;2023-06-26T07:14:37;10.88;;;6.30;;
27722;SDS011;15123;-37.794;175.246;2023-06-26T07:17:57;9.48;;;6.28;;
27722;SDS011;15123;-37.794;175.246;2023-06-26T07:21:14;10.52;;;6.65;;
27722;SDS011;15123;-37.794;175.246;2023-06-26T07:24:37;10.27;;;6.10;;
27722;SDS011;15123;-37.794;175.246;2023-06-26T07:28:01;11.57;;;6.35;;
27722;SDS011;15123;-37.794;175.246;2023-06-26T07:31:24;14.15;;;9.68;;
27722;SDS011;15123;-37.794;175.246;2023-06-26T07:34:48;19.05;;;12.68;;
27722;SDS011;15123;-37.794;175.246;2023-06-26T07:38:11;16.05;;;10.55;;
27722;SDS011;15123;-37.794;175.246;2023-06-26T07:41:35;16.20;;;11.23;;
27722;SDS011;15123;-37.794;175.246;2023-06-26T07:44:59;20.80;;;13.52;;
27722;SDS011;15123;-37.794;175.246;2023-06-26T07:48:25;23.85;;;15.73;;
27722;SDS011;15123;-37.794;175.246;2023-06-26T07:51:48;28.13;;;16.58;;
27722;SDS011;15123;-37.794;175.246;2023-06-26T07:55:12;30.90;;;19.15;;
27722;SDS011;15123;-37.794;175.246;2023-06-26T07:58:36;25.45;;;18.45;;
27722;SDS011;15123;-37.794;175.246;2023-06-26T08:02:00;20.60;;;14.93;;
27722;SDS011;15123;-37.794;175.246;2023-06-26T08:05:23;17.55;;;12.50;;
27722;SDS011;15123;-37.794;175.246;2023-06-26T08:08:46;21.30;;;12.45;;
27722;SDS011;15123;-37.794;175.246;2023-06-26T08:12:10;21.13;;;14.60;;
27722;SDS011;15123;-37.794;175.246;2023-06-26T08:15:33;20.63;;;13.05;;
27722;SDS011;15123;-37.794;175.246;2023-06-26T08:18:52;21.70;;;14.02;;
27722;SDS011;15123;-37.794;175.246;2023-06-26T08:22:09;23.25;;;13.75;;
27722;SDS011;15123;-37.794;175.246;2023-06-26T08:25:32;21.95;;;14.50;;
27722;SDS011;15123;-37.794;175.246;2023-06-26T08:28:56;22.00;;;13.82;;
27722;SDS011;15123;-37.794;175.246;2023-06-26T08:32:22;23.35;;;15.65;;
27722;SDS011;15123;-37.794;175.246;2023-06-26T08:35:45;22.30;;;13.88;;
27722;SDS011;15123;-37.794;175.246;2023-06-26T08:39:08;33.85;;;15.70;;
27722;SDS011;15123;-37.794;175.246;2023-06-26T08:42:31;34.13;;;18.00;;
27722;SDS011;15123;-37.794;175.246;2023-06-26T08:45:55;35.25;;;19.98;;
27722;SDS011;15123;-37.794;175.246;2023-06-26T08:49:29;30.70;;;17.33;;
27722;SDS011;15123;-37.794;175.246;2023-06-26T08:53:04;22.30;;;13.32;;
27722;SDS011;15123;-37.794;175.246;2023-06-26T08:56:40;21.27;;;13.60;;
27722;SDS011;15123;-37.794;175.246;2023-06-26T09:00:05;19.98;;;11.48;;
27722;SDS011;15123;-37.794;175.246;2023-06-26T09:03:29;17.13;;;9.93;;
27722;SDS011;15123;-37.794;175.246;2023-06-26T09:06:54;13.40;;;6.82;;
27722;SDS011;15123;-37.794;175.246;2023-06-26T09:10:17;13.48;;;6.43;;
27722;SDS011;15123;-37.794;175.246;2023-06-26T09:13:40;12.05;;;6.90;;
27722;SDS011;15123;-37.794;175.246;2023-06-26T09:17:03;10.63;;;6.00;;
27722;SDS011;15123;-37.794;175.246;2023-06-26T09:20:27;11.80;;;7.63;;
27722;SDS011;15123;-37.794;175.246;2023-06-26T09:23:52;11.45;;;6.90;;
27722;SDS011;15123;-37.794;175.246;2023-06-26T09:27:16;13.20;;;7.18;;
27722;SDS011;15123;-37.794;175.246;2023-06-26T09:30:39;13.88;;;7.07;;
27722;SDS011;15123;-37.794;175.246;2023-06-26T09:34:06;15.18;;;8.80;;
27722;SDS011;15123;-37.794;175.246;2023-06-26T09:37:31;15.63;;;8.15;;
27722;SDS011;15123;-37.794;175.246;2023-06-26T09:40:56;17.40;;;10.10;;
27722;SDS011;15123;-37.794;175.246;2023-06-26T09:44:20;18.15;;;9.45;;
27722;SDS011;15123;-37.794;175.246;2023-06-26T09:47:44;14.85;;;8.55;;
27722;SDS011;15123;-37.794;175.246;2023-06-26T09:51:09;14.75;;;8.85;;
27722;SDS011;15123;-37.794;175.246;2023-06-26T09:54:32;17.40;;;9.15;;
27722;SDS011;15123;-37.794;175.246;2023-06-26T09:57:56;10.90;;;6.97;;
27722;SDS011;15123;-37.794;175.246;2023-06-26T10:01:21;12.18;;;6.32;;
27722;SDS011;15123;-37.794;175.246;2023-06-26T10:04:46;12.20;;;6.25;;
27722;SDS011;15123;-37.794;175.246;2023-06-26T10:08:09;13.32;;;7.30;;
27722;SDS011;15123;-37.794;175.246;2023-06-26T10:11:40;13.05;;;6.88;;
27722;SDS011;15123;-37.794;175.246;2023-06-26T10:18:53;11.13;;;6.53;;
27722;SDS011;15123;-37.794;175.246;2023-06-26T10:22:20;14.40;;;7.15;;
27722;SDS011;15123;-37.794;175.246;2023-06-26T10:25:47;13.27;;;7.22;;
27722;SDS011;15123;-37.794;175.246;2023-06-26T10:29:11;14.48;;;7.78;;
27722;SDS011;15123;-37.794;175.246;2023-06-26T10:32:36;14.82;;;8.90;;
27722;SDS011;15123;-37.794;175.246;2023-06-26T10:36:20;15.70;;;9.05;;
27722;SDS011;15123;-37.794;175.246;2023-06-26T10:39:51;14.50;;;9.27;;
27722;SDS011;15123;-37.794;175.246;2023-06-26T10:43:15;16.08;;;10.30;;
27722;SDS011;15123;-37.794;175.246;2023-06-26T10:46:52;16.65;;;10.50;;
27722;SDS011;15123;-37.794;175.246;2023-06-26T10:50:23;19.65;;;11.57;;
27722;SDS011;15123;-37.794;175.246;2023-06-26T10:53:56;21.42;;;12.68;;
27722;SDS011;15123;-37.794;175.246;2023-06-26T10:57:23;22.38;;;13.07;;
27722;SDS011;15123;-37.794;175.246;2023-06-26T11:00:51;17.55;;;9.82;;
27722;SDS011;15123;-37.794;175.246;2023-06-26T11:04:15;15.60;;;7.30;;
27722;SDS011;15123;-37.794;175.246;2023-06-26T11:07:38;14.45;;;7.68;;
27722;SDS011;15123;-37.794;175.246;2023-06-26T11:15:20;12.65;;;6.50;;
27722;SDS011;15123;-37.794;175.246;2023-06-26T11:18:44;14.98;;;8.50;;
27722;SDS011;15123;-37.794;175.246;2023-06-26T11:22:12;22.13;;;13.05;;
27722;SDS011;15123;-37.794;175.246;2023-06-26T11:25:37;24.23;;;13.55;;
27722;SDS011;15123;-37.794;175.246;2023-06-26T11:29:01;25.08;;;13.68;;
27722;SDS011;15123;-37.794;175.246;2023-06-26T11:32:26;41.58;;;21.25;;
27722;SDS011;15123;-37.794;175.246;2023-06-26T11:35:50;24.73;;;14.38;;
27722;SDS011;15123;-37.794;175.246;2023-06-26T11:39:14;18.58;;;11.07;;
27722;SDS011;15123;-37.794;175.246;2023-06-26T11:42:38;16.05;;;8.38;;
27722;SDS011;15123;-37.794;175.246;2023-06-26T11:46:03;11.38;;;6.07;;
27722;SDS011;15123;-37.794;175.246;2023-06-26T11:49:26;13.45;;;5.40;;
27722;SDS011;15123;-37.794;175.246;2023-06-26T11:52:57;11.68;;;4.68;;
27722;SDS011;15123;-37.794;175.246;2023-06-26T11:56:22;10.68;;;4.90;;
27722;SDS011;15123;-37.794;175.246;2023-06-26T11:59:49;12.57;;;5.30;;
27722;SDS011;15123;-37.794;175.246;2023-06-26T12:03:13;8.20;;;4.63;;
27722;SDS011;15123;-37.794;175.246;2023-06-26T12:06:39;8.10;;;4.35;;
27722;SDS011;15123;-37.794;175.246;2023-06-26T12:10:03;9.52;;;3.72;;
27722;SDS011;15123;-37.794;175.246;2023-06-26T12:13:27;7.40;;;3.25;;
27722;SDS011;15123;-37.794;175.246;2023-06-26T12:16:52;8.55;;;3.00;;
27722;SDS011;15123;-37.794;175.246;2023-06-26T12:20:23;6.22;;;2.60;;
27722;SDS011;15123;-37.794;175.246;2023-06-26T12:23:48;7.53;;;2.40;;
27722;SDS011;15123;-37.794;175.246;2023-06-26T12:27:14;6.35;;;2.60;;
27722;SDS011;15123;-37.794;175.246;2023-06-26T12:30:38;6.00;;;1.98;;
27722;SDS011;15123;-37.794;175.246;2023-06-26T12:34:01;6.50;;;2.20;;
27722;SDS011;15123;-37.794;175.246;2023-06-26T12:37:37;5.72;;;1.73;;
27722;SDS011;15123;-37.794;175.246;2023-06-26T12:41:01;5.57;;;1.33;;
27722;SDS011;15123;-37.794;175.246;2023-06-26T12:44:30;6.57;;;1.20;;
27722;SDS011;15123;-37.794;175.246;2023-06-26T12:48:06;4.70;;;1.48;;
27722;SDS011;15123;-37.794;175.246;2023-06-26T12:51:37;4.10;;;1.00;;
27722;SDS011;15123;-37.794;175.246;2023-06-26T12:55:02;2.95;;;0.80;;
27722;SDS011;15123;-37.794;175.246;2023-06-26T12:58:28;3.95;;;1.05;;
27722;SDS011;15123;-37.794;175.246;2023-06-26T13:01:52;3.28;;;0.70;;
27722;SDS011;15123;-37.794;175.246;2023-06-26T13:05:16;4.03;;;0.80;;
27722;SDS011;15123;-37.794;175.246;2023-06-26T13:08:40;4.15;;;0.70;;
27722;SDS011;15123;-37.794;175.246;2023-06-26T13:12:05;1.75;;;0.50;;
27722;SDS011;15123;-37.794;175.246;2023-06-26T13:15:29;1.65;;;0.32;;
27722;SDS011;15123;-37.794;175.246;2023-06-26T13:18:54;1.73;;;0.40;;
27722;SDS011;15123;-37.794;175.246;2023-06-26T13:22:18;3.03;;;0.60;;
27722;SDS011;15123;-37.794;175.246;2023-06-26T13:25:43;2.58;;;0.40;;
27722;SDS011;15123;-37.794;175.246;2023-06-26T13:29:09;1.88;;;0.40;;
27722;SDS011;15123;-37.794;175.246;2023-06-26T13:32:32;3.25;;;0.80;;
27722;SDS011;15123;-37.794;175.246;2023-06-26T13:35:55;3.35;;;0.60;;
27722;SDS011;15123;-37.794;175.246;2023-06-26T13:39:21;5.43;;;0.70;;
27722;SDS011;15123;-37.794;175.246;2023-06-26T13:42:45;3.17;;;0.70;;
27722;SDS011;15123;-37.794;175.246;2023-06-26T13:46:10;6.22;;;1.10;;
27722;SDS011;15123;-37.794;175.246;2023-06-26T13:49:36;4.57;;;0.70;;
27722;SDS011;15123;-37.794;175.246;2023-06-26T13:53:00;4.88;;;0.80;;
27722;SDS011;15123;-37.794;175.246;2023-06-26T13:56:24;5.28;;;1.10;;
27722;SDS011;15123;-37.794;175.246;2023-06-26T13:59:48;4.90;;;0.80;;
27722;SDS011;15123;-37.794;175.246;2023-06-26T14:03:16;4.72;;;0.82;;
27722;SDS011;15123;-37.794;175.246;2023-06-26T14:06:40;3.95;;;0.70;;
27722;SDS011;15123;-37.794;175.246;2023-06-26T14:10:05;5.72;;;0.80;;
27722;SDS011;15123;-37.794;175.246;2023-06-26T14:13:30;3.65;;;0.73;;
27722;SDS011;15123;-37.794;175.246;2023-06-26T14:16:54;3.03;;;0.40;;
27722;SDS011;15123;-37.794;175.246;2023-06-26T14:20:18;4.38;;;0.52;;
27722;SDS011;15123;-37.794;175.246;2023-06-26T14:23:44;4.38;;;0.82;;
27722;SDS011;15123;-37.794;175.246;2023-06-26T14:27:08;3.40;;;0.60;;
27722;SDS011;15123;-37.794;175.246;2023-06-26T14:30:33;2.90;;;0.65;;
27722;SDS011;15123;-37.794;175.246;2023-06-26T14:33:57;4.40;;;0.60;;
27722;SDS011;15123;-37.794;175.246;2023-06-26T14:37:21;3.75;;;0.50;;
27722;SDS011;15123;-37.794;175.246;2023-06-26T14:40:46;3.03;;;0.60;;
27722;SDS011;15123;-37.794;175.246;2023-06-26T14:44:11;3.47;;;0.55;;
27722;SDS011;15123;-37.794;175.246;2023-06-26T14:47:34;3.45;;;0.40;;
27722;SDS011;15123;-37.794;175.246;2023-06-26T14:51:01;4.88;;;0.50;;
27722;SDS011;15123;-37.794;175.246;2023-06-26T14:54:25;3.42;;;0.60;;
27722;SDS011;15123;-37.794;175.246;2023-06-26T14:58:03;4.63;;;0.60;;
27722;SDS011;15123;-37.794;175.246;2023-06-26T15:01:26;3.60;;;0.50;;
27722;SDS011;15123;-37.794;175.246;2023-06-26T15:04:50;3.40;;;0.43;;
27722;SDS011;15123;-37.794;175.246;2023-06-26T15:08:13;3.15;;;0.40;;
27722;SDS011;15123;-37.794;175.246;2023-06-26T15:11:38;2.28;;;0.40;;
27722;SDS011;15123;-37.794;175.246;2023-06-26T15:15:03;4.07;;;0.60;;
27722;SDS011;15123;-37.794;175.246;2023-06-26T15:18:28;3.83;;;0.55;;
27722;SDS011;15123;-37.794;175.246;2023-06-26T15:21:53;3.42;;;0.60;;
27722;SDS011;15123;-37.794;175.246;2023-06-26T15:25:16;5.45;;;0.70;;
27722;SDS011;15123;-37.794;175.246;2023-06-26T15:28:41;3.10;;;0.60;;
27722;SDS011;15123;-37.794;175.246;2023-06-26T15:32:06;4.32;;;0.60;;
27722;SDS011;15123;-37.794;175.246;2023-06-26T15:35:31;3.58;;;0.50;;
27722;SDS011;15123;-37.794;175.246;2023-06-26T15:38:54;3.78;;;0.60;;
27722;SDS011;15123;-37.794;175.246;2023-06-26T15:42:19;3.63;;;0.60;;
27722;SDS011;15123;-37.794;175.246;2023-06-26T15:45:45;5.45;;;0.70;;
27722;SDS011;15123;-37.794;175.246;2023-06-26T15:49:08;3.33;;;0.70;;
27722;SDS011;15123;-37.794;175.246;2023-06-26T15:52:32;4.85;;;0.80;;
27722;SDS011;15123;-37.794;175.246;2023-06-26T15:55:56;3.55;;;0.80;;
27722;SDS011;15123;-37.794;175.246;2023-06-26T15:59:23;4.22;;;0.70;;
27722;SDS011;15123;-37.794;175.246;2023-06-26T16:02:47;4.25;;;0.70;;
27722;SDS011;15123;-37.794;175.246;2023-06-26T16:06:11;4.72;;;0.80;;
27722;SDS011;15123;-37.794;175.246;2023-06-26T16:09:35;3.95;;;0.88;;
27722;SDS011;15123;-37.794;175.246;2023-06-26T16:12:59;5.47;;;1.00;;
27722;SDS011;15123;-37.794;175.246;2023-06-26T16:16:22;5.03;;;1.00;;
27722;SDS011;15123;-37.794;175.246;2023-06-26T16:19:47;5.63;;;1.10;;
27722;SDS011;15123;-37.794;175.246;2023-06-26T16:23:12;4.78;;;1.02;;
27722;SDS011;15123;-37.794;175.246;2023-06-26T16:26:36;5.03;;;0.90;;
27722;SDS011;15123;-37.794;175.246;2023-06-26T16:30:00;2.85;;;0.80;;
27722;SDS011;15123;-37.794;175.246;2023-06-26T16:33:19;3.75;;;0.90;;
27722;SDS011;15123;-37.794;175.246;2023-06-26T16:36:36;4.28;;;0.90;;
27722;SDS011;15123;-37.794;175.246;2023-06-26T16:40:03;5.78;;;0.70;;
27722;SDS011;15123;-37.794;175.246;2023-06-26T16:43:27;2.75;;;0.70;;
27722;SDS011;15123;-37.794;175.246;2023-06-26T16:46:57;4.75;;;0.90;;
27722;SDS011;15123;-37.794;175.246;2023-06-26T16:50:21;4.57;;;0.90;;
27722;SDS011;15123;-37.794;175.246;2023-06-26T16:53:45;25.73;;;8.73;;
27722;SDS011;15123;-37.794;175.246;2023-06-26T16:57:10;6.85;;;1.70;;
27722;SDS011;15123;-37.794;175.246;2023-06-26T17:00:35;4.63;;;1.20;;
27722;SDS011;15123;-37.794;175.246;2023-06-26T17:03:58;33.55;;;22.10;;
27722;SDS011;15123;-37.794;175.246;2023-06-26T17:07:23;42.45;;;27.58;;
27722;SDS011;15123;-37.794;175.246;2023-06-26T17:10:46;12.25;;;6.60;;
27722;SDS011;15123;-37.794;175.246;2023-06-26T17:14:09;8.57;;;4.32;;
27722;SDS011;15123;-37.794;175.246;2023-06-26T17:17:32;7.40;;;2.80;;
27722;SDS011;15123;-37.794;175.246;2023-06-26T17:20:57;6.78;;;1.17;;
27722;SDS011;15123;-37.794;175.246;2023-06-26T17:24:20;4.18;;;1.15;;
27722;SDS011;15123;-37.794;175.246;2023-06-26T17:27:46;4.55;;;1.30;;
27722;SDS011;15123;-37.794;175.246;2023-06-26T17:31:09;5.43;;;1.20;;
27722;SDS011;15123;-37.794;175.246;2023-06-26T17:34:28;4.65;;;1.40;;
27722;SDS011;15123;-37.794;175.246;2023-06-26T17:37:47;5.35;;;1.27;;
27722;SDS011;15123;-37.794;175.246;2023-06-26T17:41:13;6.88;;;1.30;;
27722;SDS011;15123;-37.794;175.246;2023-06-26T17:44:38;7.05;;;1.80;;
27722;SDS011;15123;-37.794;175.246;2023-06-26T17:48:01;5.00;;;1.67;;
27722;SDS011;15123;-37.794;175.246;2023-06-26T17:51:25;7.03;;;1.58;;
27722;SDS011;15123;-37.794;175.246;2023-06-26T17:54:49;7.05;;;2.10;;
27722;SDS011;15123;-37.794;175.246;2023-06-26T17:58:13;5.93;;;2.00;;
27722;SDS011;15123;-37.794;175.246;2023-06-26T18:01:36;6.22;;;2.30;;
27722;SDS011;15123;-37.794;175.246;2023-06-26T18:05:00;7.57;;;2.58;;
27722;SDS011;15123;-37.794;175.246;2023-06-26T18:08:24;9.75;;;3.20;;
27722;SDS011;15123;-37.794;175.246;2023-06-26T18:11:48;9.93;;;3.03;;
27722;SDS011;15123;-37.794;175.246;2023-06-26T18:15:11;10.65;;;3.85;;
27722;SDS011;15123;-37.794;175.246;2023-06-26T18:18:37;9.70;;;3.50;;
27722;SDS011;15123;-37.794;175.246;2023-06-26T18:22:04;16.00;;;3.60;;
27722;SDS011;15123;-37.794;175.246;2023-06-26T18:25:28;17.88;;;3.22;;
27722;SDS011;15123;-37.794;175.246;2023-06-26T18:28:51;16.90;;;4.20;;
27722;SDS011;15123;-37.794;175.246;2023-06-26T18:32:16;12.68;;;3.63;;
27722;SDS011;15123;-37.794;175.246;2023-06-26T18:35:41;11.07;;;3.40;;
27722;SDS011;15123;-37.794;175.246;2023-06-26T18:39:04;16.80;;;3.33;;
27722;SDS011;15123;-37.794;175.246;2023-06-26T18:42:27;11.63;;;3.35;;
27722;SDS011;15123;-37.794;175.246;2023-06-26T18:45:54;11.00;;;3.28;;
27722;SDS011;15123;-37.794;175.246;2023-06-26T18:49:17;11.73;;;3.58;;
27722;SDS011;15123;-37.794;175.246;2023-06-26T18:52:42;10.25;;;3.92;;
27722;SDS011;15123;-37.794;175.246;2023-06-26T18:56:06;12.35;;;4.70;;
27722;SDS011;15123;-37.794;175.246;2023-06-26T18:59:29;21.17;;;6.15;;
27722;SDS011;15123;-37.794;175.246;2023-06-26T19:02:57;20.65;;;5.25;;
27722;SDS011;15123;-37.794;175.246;2023-06-26T19:06:19;17.15;;;4.38;;
27722;SDS011;15123;-37.794;175.246;2023-06-26T19:09:43;14.15;;;4.70;;
27722;SDS011;15123;-37.794;175.246;2023-06-26T19:13:07;25.88;;;4.57;;
27722;SDS011;15123;-37.794;175.246;2023-06-26T19:16:30;38.30;;;5.18;;
27722;SDS011;15123;-37.794;175.246;2023-06-26T19:19:54;32.00;;;5.40;;
27722;SDS011;15123;-37.794;175.246;2023-06-26T19:23:21;21.35;;;4.80;;
27722;SDS011;15123;-37.794;175.246;2023-06-26T19:26:47;14.23;;;3.80;;
27722;SDS011;15123;-37.794;175.246;2023-06-26T19:30:14;20.33;;;4.70;;
27722;SDS011;15123;-37.794;175.246;2023-06-26T19:33:38;22.48;;;4.38;;
27722;SDS011;15123;-37.794;175.246;2023-06-26T19:37:03;22.67;;;4.57;;
27722;SDS011;15123;-37.794;175.246;2023-06-26T19:40:29;17.00;;;4.38;;
27722;SDS011;15123;-37.794;175.246;2023-06-26T19:43:53;12.23;;;4.03;;